Time;durP1;ratioP1;P1;durP2;ratioP2;P2;SDS_P1;SDS_P2;PMS_P1;PMS_P2;Temp;Humidity;BMP_temperature;BMP_pressure;BME280_temperature;BME280_humidity;BME280_pressure;Samples;Min_cycle;Max_cycle;Signal;HPM_P1;HPM_P2
2022/05/04 00:02:14;;;;;;;12.55;4.60;;;;;;;7.65;81.95;102217.50;7383943;19;20045;-76
2022/05/04 00:04:44;;;;;;;12.35;4.60;;;;;;;7.65;80.94;102217.50;7385758;19;20010;-76
2022/05/04 00:07:14;;;;;;;13.23;5.18;;;;;;;7.68;81.52;102218.53;7381965;19;20432;-77
2022/05/04 00:09:43;;;;;;;10.75;4.03;;;;;;;7.67;80.66;102226.31;7382267;19;20058;-76
2022/05/04 00:12:19;;;;;;;11.88;4.63;;;;;;;7.63;80.44;102225.25;7379919;19;20022;-76
2022/05/04 00:14:51;;;;;;;11.43;5.47;;;;;;;7.61;79.72;102226.00;7377320;19;20009;-71
2022/05/04 00:17:22;;;;;;;13.70;5.15;;;;;;;7.64;80.43;102226.16;7372905;19;20014;-71
2022/05/04 00:19:52;;;;;;;9.07;3.72;;;;;;;7.62;79.39;102222.56;7379097;19;20078;-71
2022/05/04 00:22:23;;;;;;;9.25;4.95;;;;;;;7.60;79.20;102234.66;7377802;19;20011;-76
2022/05/04 00:24:53;;;;;;;10.55;4.13;;;;;;;7.65;79.49;102222.72;7382971;19;20003;-77
2022/05/04 00:27:26;;;;;;;12.63;5.25;;;;;;;7.65;78.94;102228.84;7376715;19;20015;-76
2022/05/04 00:29:55;;;;;;;9.55;4.05;;;;;;;7.67;79.39;102221.06;7381266;19;20487;-76
2022/05/04 00:32:26;;;;;;;11.20;4.72;;;;;;;7.67;78.67;102223.69;7381517;19;20011;-76
2022/05/04 00:34:55;;;;;;;12.48;4.13;;;;;;;7.70;79.10;102222.13;7383748;19;20021;-76
2022/05/04 00:37:26;;;;;;;10.52;4.28;;;;;;;7.72;78.90;102204.81;7380623;19;20276;-76
2022/05/04 00:39:56;;;;;;;9.35;4.32;;;;;;;7.74;78.82;102215.31;7380799;19;20036;-76
2022/05/04 00:42:28;;;;;;;10.48;4.50;;;;;;;7.74;79.21;102223.16;7380461;19;20471;-76
2022/05/04 00:44:59;;;;;;;9.70;3.92;;;;;;;7.73;79.65;102222.25;7385265;19;20006;-76
2022/05/04 00:47:28;;;;;;;12.63;4.57;;;;;;;7.75;78.59;102217.09;7382172;19;20077;-75
2022/05/04 00:50:04;;;;;;;9.55;4.25;;;;;;;7.75;79.27;102219.72;7387260;19;20007;-76
2022/05/04 00:52:39;;;;;;;7.80;3.92;;;;;;;7.72;78.65;102216.97;7378407;19;20014;-75
2022/05/04 00:55:13;;;;;;;12.18;4.95;;;;;;;7.72;79.48;102209.13;7379950;19;20010;-71
2022/05/04 01:00:28;;;;;;;15.40;4.40;;;;;;;7.72;79.26;102210.03;7373881;19;20013;-71
2022/05/04 01:02:59;;;;;;;12.48;5.05;;;;;;;7.72;79.60;102209.13;7373584;19;20516;-70
2022/05/04 01:05:29;;;;;;;10.18;4.68;;;;;;;7.73;79.41;102210.91;7375108;19;20010;-71
2022/05/04 01:08:01;;;;;;;13.27;5.15;;;;;;;7.75;79.24;102204.06;7375157;19;20007;-70
2022/05/04 01:10:31;;;;;;;10.55;4.45;;;;;;;7.78;78.89;102210.31;7378391;19;20572;-71
2022/05/04 01:13:03;;;;;;;11.43;5.22;;;;;;;7.75;78.62;102209.28;7374379;19;20550;-70
2022/05/04 01:15:33;;;;;;;14.38;5.45;;;;;;;7.73;78.07;102210.91;7375332;19;20122;-70
2022/05/04 01:18:03;;;;;;;10.98;4.35;;;;;;;7.72;78.66;102209.13;7376000;19;20110;-75
2022/05/04 01:20:33;;;;;;;10.60;5.00;;;;;;;7.73;78.65;102208.31;7379039;19;20014;-75
2022/05/04 01:23:06;;;;;;;8.57;4.10;;;;;;;7.70;78.67;102206.44;7378549;19;20041;-76
2022/05/04 01:25:36;;;;;;;13.23;5.18;;;;;;;7.66;78.71;102209.75;7381751;19;20007;-77
2022/05/04 01:28:11;;;;;;;14.07;4.68;;;;;;;7.63;79.04;102201.75;7379299;19;20019;-71
2022/05/04 01:30:41;;;;;;;8.35;4.53;;;;;;;7.62;79.19;102201.69;7377893;19;20010;-71
2022/05/04 01:33:11;;;;;;;11.13;4.70;;;;;;;7.56;79.37;102197.06;7378899;19;20479;-72
2022/05/04 01:35:41;;;;;;;12.60;5.13;;;;;;;7.52;79.44;102195.13;7380845;19;20018;-76
2022/05/04 01:38:13;;;;;;;12.77;4.97;;;;;;;7.46;80.10;102193.13;7384723;19;20039;-75
2022/05/04 01:40:43;;;;;;;10.75;4.43;;;;;;;7.40;79.99;102197.16;7386982;19;20011;-76
2022/05/04 01:43:13;;;;;;;9.65;4.53;;;;;;;7.36;80.12;102201.34;7385191;19;20018;-76
2022/05/04 01:45:43;;;;;;;12.32;5.18;;;;;;;7.31;81.19;102195.00;7387533;19;20149;-78
2022/05/04 01:48:15;;;;;;;13.10;5.20;;;;;;;7.26;81.25;102195.66;7387495;19;20014;-71
2022/05/04 01:50:51;;;;;;;13.13;4.47;;;;;;;7.19;80.59;102194.47;7385544;19;20022;-76
2022/05/04 01:53:24;;;;;;;12.23;4.47;;;;;;;7.12;81.20;102194.97;7381565;19;20033;-75
2022/05/04 01:55:59;;;;;;;13.13;4.45;;;;;;;7.07;81.32;102193.84;7382216;19;20044;-78
2022/05/04 01:58:29;;;;;;;12.13;4.97;;;;;;;6.99;81.70;102195.19;7375242;19;20028;-71
2022/05/04 02:01:01;;;;;;;13.02;5.10;;;;;;;6.91;82.15;102192.22;7377239;19;20010;-76
2022/05/04 02:03:31;;;;;;;11.75;4.60;;;;;;;6.84;81.54;102188.41;7375894;19;20085;-77
2022/05/04 02:06:01;;;;;;;11.05;4.57;;;;;;;6.78;82.24;102181.97;7383561;19;20017;-76
2022/05/04 02:08:33;;;;;;;10.90;4.80;;;;;;;6.73;82.92;102192.19;7379659;19;20471;-71
2022/05/04 02:11:04;;;;;;;12.27;5.40;;;;;;;6.67;83.65;102186.66;7383853;19;20022;-71
2022/05/04 02:13:34;;;;;;;13.15;5.05;;;;;;;6.62;84.26;102182.94;7378585;19;20041;-71
2022/05/04 02:16:05;;;;;;;12.00;5.85;;;;;;;6.55;84.20;102188.66;7381559;19;20017;-71
2022/05/04 02:18:39;;;;;;;14.20;5.18;;;;;;;6.46;84.33;102185.56;7385497;19;20006;-75
2022/05/04 02:21:14;;;;;;;13.20;6.05;;;;;;;6.39;85.17;102188.69;7379834;19;20010;-77
2022/05/04 02:23:48;;;;;;;12.20;5.32;;;;;;;6.34;85.02;102184.94;7380840;19;20023;-76
2022/05/04 02:26:20;;;;;;;12.00;5.63;;;;;;;6.29;85.38;102178.59;7382184;19;20018;-77
2022/05/04 02:28:52;;;;;;;12.68;5.57;;;;;;;6.22;86.57;102182.63;7384559;19;20006;-76
2022/05/04 02:31:22;;;;;;;11.85;5.53;;;;;;;6.12;86.66;102178.66;7383630;19;20014;-75
2022/05/04 02:33:52;;;;;;;11.68;5.10;;;;;;;6.06;85.64;102172.22;7380961;19;20036;-76
2022/05/04 02:39:21;;;;;;;13.18;5.57;;;;;;;5.83;86.46;102177.06;7379086;19;20361;-76
2022/05/04 02:41:52;;;;;;;11.07;4.95;;;;;;;5.75;87.84;102172.25;7384503;19;20019;-76
2022/05/04 02:44:22;;;;;;;11.98;5.20;;;;;;;5.68;87.99;102173.63;7382813;19;20497;-70
2022/05/04 02:46:51;;;;;;;13.05;5.38;;;;;;;5.61;88.17;102175.81;7380205;19;20010;-71
2022/05/04 02:49:22;;;;;;;12.27;5.40;;;;;;;5.57;90.02;102175.66;7381816;19;20010;-71
2022/05/04 02:51:52;;;;;;;12.70;5.63;;;;;;;5.51;88.29;102174.41;7379592;19;20014;-76
2022/05/04 02:54:25;;;;;;;15.63;5.78;;;;;;;5.46;89.75;102178.47;7379951;19;20010;-77
2022/05/04 02:56:55;;;;;;;12.68;5.25;;;;;;;5.37;89.66;102178.88;7383189;19;20027;-77
2022/05/04 02:59:25;;;;;;;12.50;5.30;;;;;;;5.35;90.30;102177.00;7382535;19;20045;-75
2022/05/04 03:04:41;;;;;;;16.20;6.47;;;;;;;5.22;90.31;102165.00;7379197;19;20010;-77
2022/05/04 03:07:11;;;;;;;12.82;6.10;;;;;;;5.14;91.01;102171.50;7384857;19;20015;-75
2022/05/04 03:09:44;;;;;;;18.77;6.43;;;;;;;5.10;91.60;102174.75;7382104;19;20593;-76
2022/05/04 03:12:14;;;;;;;14.38;5.68;;;;;;;5.06;92.01;102173.69;7381013;19;20018;-70
2022/05/04 03:14:44;;;;;;;14.73;5.78;;;;;;;5.02;91.01;102170.81;7380745;19;20022;-72
2022/05/04 03:17:14;;;;;;;17.83;6.22;;;;;;;4.97;92.50;102175.75;7380777;19;20018;-71
2022/05/04 03:19:44;;;;;;;12.57;5.72;;;;;;;4.96;92.37;102175.66;7377913;19;20044;-71
2022/05/04 03:22:14;;;;;;;9.65;4.88;;;;;;;4.88;92.52;102173.53;7379092;19;20155;-76
2022/05/04 03:24:47;;;;;;;11.98;6.00;;;;;;;4.85;93.96;102168.16;7380633;19;20141;-76
2022/05/04 03:27:17;;;;;;;12.88;5.65;;;;;;;4.87;93.62;102163.94;7377706;19;20018;-77
2022/05/04 03:29:47;;;;;;;15.63;6.05;;;;;;;4.88;94.44;102157.03;7380766;19;20016;-77
2022/05/04 03:32:18;;;;;;;12.07;5.50;;;;;;;4.82;94.08;102157.56;7384400;19;20011;-77
2022/05/04 03:34:48;;;;;;;13.60;6.30;;;;;;;4.80;94.99;102160.91;7383053;19;20945;-77
2022/05/04 03:37:21;;;;;;;14.88;5.85;;;;;;;4.79;96.02;102161.69;7385362;19;20010;-71
2022/05/04 03:39:53;;;;;;;11.57;5.50;;;;;;;4.76;95.27;102157.22;7385894;19;20040;-70
2022/05/04 03:42:24;;;;;;;16.55;6.15;;;;;;;4.74;95.43;102151.03;7388431;19;20517;-70
2022/05/04 03:44:54;;;;;;;13.07;5.63;;;;;;;4.70;95.49;102150.78;7378645;19;20014;-70
2022/05/04 03:47:24;;;;;;;15.07;6.28;;;;;;;4.65;95.19;102155.72;7380751;19;20394;-70
2022/05/04 03:49:54;;;;;;;11.95;5.60;;;;;;;4.60;95.54;102149.34;7382944;19;20007;-76
2022/05/04 03:52:25;;;;;;;13.52;6.22;;;;;;;4.57;95.52;102154.38;7379184;19;20023;-76
2022/05/04 03:54:58;;;;;;;16.58;5.60;;;;;;;4.55;96.43;102155.97;7385156;19;20011;-69
2022/05/04 03:57:28;;;;;;;11.90;5.47;;;;;;;4.49;96.42;102150.44;7384293;19;20025;-69
2022/05/04 03:59:58;;;;;;;19.20;7.28;;;;;;;4.47;97.02;102152.03;7380797;19;20010;-69
2022/05/04 04:02:27;;;;;;;16.08;7.47;;;;;;;4.41;96.58;102151.69;7380797;19;20011;-70
2022/05/04 04:04:57;;;;;;;16.67;6.40;;;;;;;4.41;95.66;102154.28;7380516;19;20039;-76
2022/05/04 04:07:27;;;;;;;13.70;6.25;;;;;;;4.37;96.88;102155.78;7382838;19;20002;-76
2022/05/04 04:10:00;;;;;;;14.10;6.28;;;;;;;4.34;97.43;102166.00;7382437;19;20039;-76
2022/05/04 04:12:30;;;;;;;14.82;5.72;;;;;;;4.37;97.20;102160.09;7382487;19;20070;-76
2022/05/04 04:15:00;;;;;;;15.57;6.93;;;;;;;4.38;97.67;102157.59;7382267;19;20010;-76
2022/05/04 04:17:30;;;;;;;13.70;5.70;;;;;;;4.35;97.11;102153.91;7383568;19;20018;-77
2022/05/04 04:22:42;;;;;;;13.80;5.82;;;;;;;4.38;98.44;102161.88;7381073;19;20015;-77
2022/05/04 04:25:16;;;;;;;13.95;6.00;;;;;;;4.37;97.72;102155.78;7381233;19;20017;-77
2022/05/04 04:27:50;;;;;;;11.38;5.30;;;;;;;4.39;97.51;102150.69;7382085;19;20007;-76
2022/05/04 04:30:22;;;;;;;14.35;5.82;;;;;;;4.41;97.82;102151.69;7386574;19;20096;-76
2022/05/04 04:32:52;;;;;;;17.13;7.05;;;;;;;4.40;97.46;102155.97;7383713;19;20901;-76
2022/05/04 04:35:22;;;;;;;16.80;6.63;;;;;;;4.37;97.27;102160.09;7384080;19;20010;-78
2022/05/04 04:37:52;;;;;;;18.95;7.53;;;;;;;4.35;97.54;102167.78;7385468;19;20185;-76
2022/05/04 04:40:25;;;;;;;17.73;7.53;;;;;;;4.36;97.51;102169.59;7385152;19;20531;-76
2022/05/04 04:42:55;;;;;;;16.50;7.80;;;;;;;4.38;97.39;102173.16;7381734;19;20006;-76
2022/05/04 04:45:25;;;;;;;23.80;9.50;;;;;;;4.40;97.30;102176.75;7378473;19;20022;-77
2022/05/04 04:47:56;;;;;;;18.08;7.60;;;;;;;4.42;97.40;102175.16;7380171;19;20024;-69
2022/05/04 04:50:26;;;;;;;16.45;7.50;;;;;;;4.42;97.12;102177.75;7379979;19;20014;-70
2022/05/04 04:52:56;;;;;;;16.30;7.22;;;;;;;4.41;96.55;102175.94;7377322;19;20020;-70
2022/05/04 04:55:28;;;;;;;20.42;8.10;;;;;;;4.43;96.41;102174.34;7383824;19;20033;-69
2022/05/04 04:57:58;;;;;;;16.85;6.82;;;;;;;4.48;97.04;102170.31;7386214;19;20006;-69
2022/05/04 05:00:28;;;;;;;15.52;6.22;;;;;;;4.56;97.17;102175.97;7391603;19;20032;-77
2022/05/04 05:02:58;;;;;;;14.52;6.65;;;;;;;4.61;96.79;102171.94;7388643;19;20027;-76
2022/05/04 05:05:28;;;;;;;13.70;6.32;;;;;;;4.67;96.85;102163.59;7388675;19;20032;-77
2022/05/04 05:07:58;;;;;;;19.75;6.97;;;;;;;4.73;96.33;102171.75;7390508;19;20010;-77
2022/05/04 05:10:31;;;;;;;13.40;6.68;;;;;;;4.78;96.00;102173.81;7391601;19;20022;-77
2022/05/04 05:13:01;;;;;;;14.18;5.78;;;;;;;4.90;95.82;102171.91;7384795;19;20619;-77
2022/05/04 05:18:13;;;;;;;15.20;7.00;;;;;;;5.33;95.09;102173.41;7379959;19;20011;-77
2022/05/04 05:20:43;;;;;;;14.80;7.00;;;;;;;5.55;94.57;102174.66;7380789;19;20425;-76
2022/05/04 05:23:13;;;;;;;16.77;7.50;;;;;;;5.74;93.10;102173.97;7383173;19;20412;-77
2022/05/04 05:25:46;;;;;;;16.00;6.90;;;;;;;5.97;92.86;102177.84;7382287;19;20927;-70
2022/05/04 05:28:19;;;;;;;15.88;7.00;;;;;;;6.11;91.56;102165.53;7380532;19;20018;-70
2022/05/04 05:30:52;;;;;;;16.48;6.60;;;;;;;6.37;91.07;102164.25;7383245;19;20552;-70
2022/05/04 05:33:22;;;;;;;13.55;5.53;;;;;;;6.65;91.12;102167.44;7382956;19;20470;-77
2022/05/04 05:35:52;;;;;;;19.48;6.88;;;;;;;6.90;89.11;102161.72;7382398;19;20014;-76
2022/05/04 05:38:24;;;;;;;15.52;5.70;;;;;;;7.20;88.06;102164.94;7382476;19;20044;-76
2022/05/04 05:40:56;;;;;;;16.48;7.10;;;;;;;7.48;87.05;102159.28;7381414;19;20403;-70
2022/05/04 05:43:28;;;;;;;16.30;6.40;;;;;;;7.73;84.19;102156.97;7380199;19;20035;-70
2022/05/04 05:45:58;;;;;;;15.57;5.85;;;;;;;7.92;81.62;102158.69;7381580;19;20211;-70
2022/05/04 05:48:28;;;;;;;15.40;5.93;;;;;;;8.14;80.27;102161.44;7379790;19;20357;-69
2022/05/04 05:50:58;;;;;;;15.30;6.55;;;;;;;8.41;80.06;102155.63;7382043;19;20011;-69
2022/05/04 05:53:28;;;;;;;11.90;5.57;;;;;;;8.66;79.38;102158.47;7375086;19;20022;-70
2022/05/04 05:56:00;;;;;;;13.55;5.43;;;;;;;8.82;75.44;102155.66;7378609;19;20010;-70
2022/05/04 05:58:30;;;;;;;13.20;5.47;;;;;;;9.10;77.13;102154.16;7379407;19;20467;-78
2022/05/04 06:01:00;;;;;;;14.40;5.68;;;;;;;9.18;73.53;102163.22;7381480;19;20035;-70
2022/05/04 06:03:31;;;;;;;16.23;6.30;;;;;;;9.25;72.54;102157.38;7379128;19;20007;-71
2022/05/04 06:06:01;;;;;;;12.70;5.70;;;;;;;9.33;70.53;102158.59;7377807;19;20029;-69
2022/05/04 06:08:31;;;;;;;14.45;5.55;;;;;;;9.60;70.87;102163.06;7377250;19;20010;-69
2022/05/04 06:11:04;;;;;;;12.55;5.55;;;;;;;9.93;69.48;102156.47;7381519;19;20018;-70
2022/05/04 06:13:38;;;;;;;11.90;6.05;;;;;;;9.94;68.22;102157.38;7376708;19;20038;-70
2022/05/04 06:16:11;;;;;;;13.80;5.82;;;;;;;10.11;67.14;102154.53;7379948;19;20010;-69
2022/05/04 06:18:41;;;;;;;17.35;5.40;;;;;;;10.49;68.42;102157.59;7380204;19;20373;-70
2022/05/04 06:21:10;;;;;;;15.32;5.80;;;;;;;10.70;66.24;102160.97;7377449;19;20022;-70
2022/05/04 06:23:40;;;;;;;14.63;6.32;;;;;;;10.70;63.20;102163.59;7379974;19;20014;-77
2022/05/04 06:26:14;;;;;;;13.27;5.35;;;;;;;10.96;63.44;102155.69;7379861;19;20007;-77
2022/05/04 06:28:43;;;;;;;12.40;5.10;;;;;;;10.68;62.33;102167.88;7379563;19;20417;-77
2022/05/04 06:36:38;;;;;;;11.82;4.60;;;;;;;11.51;60.53;102163.53;7378397;19;20022;-76
2022/05/04 06:39:10;;;;;;;12.25;4.85;;;;;;;11.52;59.75;102165.31;7380455;19;20035;-77
2022/05/04 06:41:43;;;;;;;10.85;4.53;;;;;;;11.39;58.24;102164.09;7380895;19;20006;-77
2022/05/04 06:44:20;;;;;;;13.43;5.10;;;;;;;11.78;59.37;102161.78;7379903;19;20025;-77
2022/05/04 06:46:50;;;;;;;14.80;5.30;;;;;;;11.73;58.70;102165.06;7382557;19;20513;-77
2022/05/04 06:49:22;;;;;;;13.45;5.32;;;;;;;11.67;57.53;102170.16;7376467;19;20020;-77
2022/05/04 06:51:51;;;;;;;10.90;4.90;;;;;;;11.70;57.40;102164.97;7381804;19;20135;-77
2022/05/04 06:54:21;;;;;;;10.25;4.75;;;;;;;11.94;57.52;102171.00;7378048;19;20565;-70
2022/05/04 06:56:56;;;;;;;11.35;5.03;;;;;;;12.14;56.76;102168.03;7381905;19;20078;-70
2022/05/04 06:59:27;;;;;;;9.68;5.05;;;;;;;11.84;55.83;102174.22;7375693;19;20014;-71
2022/05/04 07:01:57;;;;;;;12.95;5.47;;;;;;;11.92;55.93;102170.06;7382483;19;20048;-78
2022/05/04 07:04:27;;;;;;;12.57;5.65;;;;;;;11.98;56.33;102171.97;7385116;19;20086;-71
2022/05/04 07:06:58;;;;;;;10.50;5.15;;;;;;;12.06;56.07;102180.97;7383291;19;20508;-71
2022/05/04 07:09:27;;;;;;;13.60;5.75;;;;;;;12.26;55.47;102168.38;7381851;19;20029;-71
2022/05/04 07:12:00;;;;;;;14.43;5.35;;;;;;;13.04;54.84;102160.72;7374577;19;20474;-71
2022/05/04 07:14:30;;;;;;;15.10;5.50;;;;;;;13.20;53.97;102168.19;7373693;19;20103;-71
2022/05/04 07:17:00;;;;;;;12.57;5.95;;;;;;;13.23;51.91;102168.25;7379322;19;20475;-71
2022/05/04 07:19:30;;;;;;;11.68;5.18;;;;;;;12.81;54.00;102170.69;7375680;19;20014;-70
2022/05/04 07:22:00;;;;;;;12.00;4.65;;;;;;;12.75;53.16;102165.28;7375917;19;20010;-71
2022/05/04 07:24:30;;;;;;;13.90;5.65;;;;;;;12.95;54.10;102165.78;7372460;19;20010;-70
2022/05/04 07:27:02;;;;;;;13.43;5.20;;;;;;;13.38;53.79;102160.72;7381394;19;20040;-76
2022/05/04 07:29:32;;;;;;;14.48;5.68;;;;;;;13.61;53.35;102153.28;7379189;19;20006;-76
2022/05/04 07:32:02;;;;;;;9.45;4.70;;;;;;;13.59;51.04;102156.75;7377985;19;20051;-76
2022/05/04 07:34:32;;;;;;;10.55;5.10;;;;;;;14.08;52.12;102150.75;7378217;19;20501;-77
2022/05/04 07:37:02;;;;;;;15.10;5.70;;;;;;;14.08;52.06;102156.91;7383435;19;20048;-77
2022/05/04 07:42:29;;;;;;;12.18;5.55;;;;;;;14.13;51.37;102156.09;7377256;19;20537;-77
2022/05/04 07:45:03;;;;;;;15.35;6.03;;;;;;;14.15;52.83;102154.38;7381219;19;20007;-77
2022/05/04 07:47:37;;;;;;;15.38;6.35;;;;;;;13.30;53.08;102162.28;7375083;19;20010;-72
2022/05/04 07:50:11;;;;;;;11.27;6.15;;;;;;;13.86;52.23;102159.97;7376457;19;20039;-76
2022/05/04 07:52:42;;;;;;;14.20;6.18;;;;;;;13.47;53.21;102149.47;7369434;19;20015;-70
2022/05/04 07:55:13;;;;;;;14.18;6.65;;;;;;;12.57;54.58;102160.44;7376385;19;20010;-75
2022/05/04 07:57:48;;;;;;;12.75;5.97;;;;;;;12.09;56.38;102167.91;7374669;19;20540;-77
2022/05/04 08:05:51;;;;;;;16.85;8.05;;;;;;;12.91;54.78;102163.91;7376939;19;20026;-75
2022/05/04 08:08:21;;;;;;;13.20;6.70;;;;;;;12.35;55.59;102164.25;7383368;19;20409;-76
2022/05/04 08:10:51;;;;;;;16.73;6.57;;;;;;;12.91;54.73;102162.19;7379648;19;20138;-70
2022/05/04 08:13:27;;;;;;;14.27;6.63;;;;;;;12.66;55.22;102159.78;7378597;19;20374;-69
2022/05/04 08:15:57;;;;;;;13.30;6.20;;;;;;;12.94;55.08;102171.91;7384489;19;20035;-71
2022/05/04 08:18:27;;;;;;;13.68;6.20;;;;;;;13.63;54.60;102170.03;7386816;19;20451;-72
2022/05/04 08:20:57;;;;;;;12.40;6.50;;;;;;;14.32;53.37;102166.16;7388181;19;20018;-71
2022/05/04 08:23:27;;;;;;;14.07;6.25;;;;;;;14.79;52.41;102168.78;7384151;19;20011;-71
2022/05/04 08:25:57;;;;;;;15.07;6.63;;;;;;;14.33;53.17;102166.19;7382694;19;20039;-71
2022/05/04 08:28:30;;;;;;;15.15;6.80;;;;;;;13.61;52.71;102162.94;7386906;19;20026;-72
2022/05/04 08:31:00;;;;;;;13.02;6.10;;;;;;;13.24;54.20;102166.50;7383280;19;20018;-71
2022/05/04 08:33:30;;;;;;;13.32;5.95;;;;;;;14.13;53.89;102164.91;7386308;19;20015;-72
2022/05/04 08:36:00;;;;;;;12.52;5.70;;;;;;;15.13;51.63;102157.88;7385549;19;20006;-72
2022/05/04 08:38:30;;;;;;;15.93;6.53;;;;;;;15.35;50.53;102161.75;7387511;19;20023;-74
2022/05/04 08:41:00;;;;;;;14.63;6.47;;;;;;;14.66;49.27;102162.38;7386283;19;20021;-74
2022/05/04 08:43:35;;;;;;;12.60;5.88;;;;;;;14.69;50.44;102154.50;7384211;19;20023;-74
2022/05/04 08:46:06;;;;;;;13.65;6.15;;;;;;;14.36;51.05;102157.44;7381930;19;20014;-74
2022/05/04 08:48:37;;;;;;;12.38;6.38;;;;;;;13.65;53.96;102168.31;7383632;19;20231;-75
2022/05/04 08:51:11;;;;;;;14.88;6.75;;;;;;;14.72;51.28;102158.09;7381320;19;20040;-74
2022/05/04 08:53:43;;;;;;;14.13;6.60;;;;;;;15.12;49.91;102156.13;7373910;19;20014;-75
2022/05/04 08:56:14;;;;;;;12.88;5.97;;;;;;;13.54;50.88;102156.63;7376166;19;20191;-73
2022/05/04 08:58:49;;;;;;;16.58;6.68;;;;;;;13.24;51.78;102164.78;7376987;19;20010;-73
2022/05/04 09:01:21;;;;;;;13.82;6.18;;;;;;;13.54;51.70;102156.63;7382634;19;20024;-76
2022/05/04 09:03:54;;;;;;;10.77;5.85;;;;;;;14.50;50.40;102157.72;7379432;19;20055;-76
2022/05/04 09:06:29;;;;;;;14.68;6.25;;;;;;;14.16;51.21;102156.16;7379454;19;20014;-75
2022/05/04 09:09:03;;;;;;;14.05;7.05;;;;;;;13.60;52.10;102153.25;7378606;19;20011;-76
2022/05/04 09:11:34;;;;;;;13.23;6.70;;;;;;;14.33;52.63;102163.53;7378068;19;20016;-77
2022/05/04 09:14:15;;;;;;;14.45;6.03;;;;;;;14.56;51.88;102161.34;7376011;19;20023;-75
2022/05/04 09:16:50;;;;;;;15.80;6.32;;;;;;;15.24;50.65;102155.41;7376933;19;20040;-74
2022/05/04 09:19:23;;;;;;;14.82;6.95;;;;;;;14.42;50.61;102160.22;7381908;19;20082;-74
2022/05/04 09:21:55;;;;;;;16.77;8.00;;;;;;;13.18;51.68;102156.72;7376826;19;20015;-75
2022/05/04 09:24:29;;;;;;;14.32;6.82;;;;;;;14.38;50.54;102151.31;7377487;19;20015;-76
2022/05/04 09:27:01;;;;;;;13.23;6.38;;;;;;;14.91;50.92;102150.47;7378135;19;20506;-76
2022/05/04 09:29:42;;;;;;;19.80;6.90;;;;;;;14.72;50.36;102139.63;7377749;19;20513;-76
2022/05/04 09:32:21;;;;;;;14.50;6.68;;;;;;;15.66;48.68;102140.16;7373051;19;20011;-77
2022/05/04 09:34:57;;;;;;;13.13;7.53;;;;;;;14.87;49.49;102132.81;7376727;19;20010;-72
2022/05/04 09:45:44;;;;;;;17.67;7.10;;;;;;;14.58;49.16;102138.50;7375229;19;20043;-71
2022/05/04 09:48:16;;;;;;;14.63;7.15;;;;;;;14.57;48.54;102139.34;7375803;19;20787;-71
2022/05/04 09:50:50;;;;;;;13.45;7.32;;;;;;;15.27;50.52;102127.28;7375080;19;20064;-71
2022/05/04 09:53:28;;;;;;;17.23;6.95;;;;;;;15.75;46.98;102136.75;7372072;19;20036;-72
2022/05/04 09:56:00;;;;;;;13.32;6.18;;;;;;;14.89;47.95;102134.63;7372937;19;20040;-72
2022/05/04 09:58:31;;;;;;;12.98;5.60;;;;;;;15.12;47.49;102136.72;7368190;19;20007;-70
2022/05/04 10:01:04;;;;;;;17.00;6.70;;;;;;;14.47;48.78;102144.47;7372036;19;20006;-72
2022/05/04 10:03:43;;;;;;;15.02;7.10;;;;;;;16.14;48.09;102123.09;7375487;19;20017;-75
2022/05/04 10:06:15;;;;;;;11.65;6.57;;;;;;;16.52;48.16;102127.88;7379551;19;20391;-74
2022/05/04 10:08:47;;;;;;;13.45;7.00;;;;;;;16.24;45.28;102132.03;7374884;19;20007;-75
2022/05/04 10:11:17;;;;;;;17.50;6.70;;;;;;;16.30;45.45;102132.97;7377894;19;20006;-74
2022/05/04 10:13:47;;;;;;;16.80;7.00;;;;;;;15.74;46.03;102134.97;7374602;19;20018;-74
2022/05/04 10:16:21;;;;;;;16.75;6.80;;;;;;;15.53;47.03;102125.00;7378825;19;20014;-78
2022/05/04 10:18:54;;;;;;;14.40;6.78;;;;;;;15.72;46.67;102123.47;7380342;19;20022;-78
2022/05/04 10:21:25;;;;;;;15.63;7.53;;;;;;;15.65;47.87;102126.91;7382096;19;20019;-78
2022/05/04 10:24:00;;;;;;;13.75;6.97;;;;;;;16.50;45.78;102122.56;7375950;19;20014;-77
2022/05/04 10:26:34;;;;;;;17.58;6.97;;;;;;;17.37;45.62;102117.03;7383598;19;20007;-77
2022/05/04 10:32:29;;;;;;;16.80;7.13;;;;;;;15.84;46.81;102120.09;7382584;19;20006;-79
2022/05/04 10:35:29;;;;;;;14.77;8.05;;;;;;;15.97;46.85;102117.63;7385689;19;20030;-80
2022/05/04 10:38:13;;;;;;;17.80;8.05;;;;;;;15.58;47.66;102120.69;7389504;19;20011;-80
2022/05/04 10:40:50;;;;;;;18.65;7.97;;;;;;;15.49;47.02;102122.28;7389701;19;20031;-80
2022/05/04 10:43:37;;;;;;;14.85;7.35;;;;;;;15.89;47.19;102108.69;7389519;19;20011;-80
2022/05/04 10:46:16;;;;;;;17.65;7.55;;;;;;;16.28;47.23;102110.00;7392463;19;20021;-79
2022/05/04 10:48:55;;;;;;;20.10;8.02;;;;;;;17.56;44.92;102103.00;7385859;19;20064;-80
2022/05/04 10:51:26;;;;;;;18.00;8.50;;;;;;;17.78;44.35;102102.22;7382770;19;20043;-79
2022/05/04 10:54:01;;;;;;;13.13;6.90;;;;;;;17.60;43.76;102110.09;7371032;19;20052;-78
2022/05/04 10:56:39;;;;;;;18.10;7.35;;;;;;;17.41;45.12;102100.28;7379858;19;20511;-79
2022/05/04 10:59:09;;;;;;;17.02;7.82;;;;;;;16.44;45.65;102101.34;7376557;19;20097;-75
2022/05/04 11:01:40;;;;;;;16.05;7.80;;;;;;;17.95;43.46;102092.53;7377354;19;20007;-72
2022/05/04 11:04:27;;;;;;;14.73;7.30;;;;;;;18.19;44.24;102099.69;7371221;19;20344;-72
2022/05/04 11:07:07;;;;;;;15.45;7.30;;;;;;;18.71;43.93;102101.53;7374922;19;20122;-74
2022/05/04 11:09:39;;;;;;;16.17;7.65;;;;;;;18.37;42.59;102096.16;7373198;19;20085;-78
2022/05/04 11:12:11;;;;;;;15.85;8.00;;;;;;;19.03;41.89;102091.72;7372391;19;20006;-77
2022/05/04 11:14:42;;;;;;;15.77;7.88;;;;;;;18.27;43.42;102102.34;7372281;19;20328;-77
2022/05/04 11:17:14;;;;;;;15.93;7.32;;;;;;;19.36;42.81;102092.53;7373663;19;20426;-78
2022/05/04 11:19:48;;;;;;;17.20;8.18;;;;;;;17.04;44.10;102101.81;7376686;19;20017;-79
2022/05/04 11:22:20;;;;;;;13.68;7.20;;;;;;;18.26;44.28;102100.56;7377736;19;20021;-74
2022/05/04 11:25:11;;;;;;;17.80;8.07;;;;;;;18.47;44.18;102097.94;7374798;19;20303;-74
2022/05/04 11:27:41;;;;;;;13.73;7.07;;;;;;;18.73;43.90;102091.75;7376271;19;20017;-78
2022/05/04 11:30:13;;;;;;;20.33;8.55;;;;;;;19.31;42.49;102091.66;7373370;19;20042;-77
2022/05/04 11:32:43;;;;;;;17.45;7.90;;;;;;;19.18;42.99;102089.03;7374076;19;20417;-77
2022/05/04 11:35:18;;;;;;;18.50;8.23;;;;;;;18.79;41.87;102094.41;7375697;19;20797;-76
2022/05/04 11:37:48;;;;;;;16.77;8.50;;;;;;;17.97;43.63;102090.78;7376082;19;20112;-75
2022/05/04 11:40:19;;;;;;;17.50;7.55;;;;;;;18.36;43.26;102082.88;7373144;19;20459;-74
2022/05/04 11:42:48;;;;;;;14.15;7.20;;;;;;;19.33;43.28;102081.91;7372879;19;20371;-75
2022/05/04 11:45:20;;;;;;;14.98;7.70;;;;;;;18.43;43.76;102082.88;7376476;19;20014;-74
2022/05/04 11:47:49;;;;;;;15.07;8.00;;;;;;;18.38;43.94;102084.66;7375873;19;20018;-74
2022/05/04 11:50:22;;;;;;;16.10;7.68;;;;;;;18.43;43.94;102082.88;7374646;19;20101;-74
2022/05/04 11:52:52;;;;;;;21.95;8.75;;;;;;;17.75;43.89;102077.44;7371322;19;20559;-74
2022/05/04 11:55:22;;;;;;;22.90;8.70;;;;;;;18.00;43.53;102081.94;7377900;19;20018;-74
2022/05/04 11:57:52;;;;;;;16.17;7.60;;;;;;;19.35;44.07;102061.50;7375368;19;20019;-75
2022/05/04 12:00:22;;;;;;;18.40;8.95;;;;;;;19.41;42.33;102065.03;7376636;19;20277;-75
2022/05/04 12:02:52;;;;;;;16.35;8.20;;;;;;;19.88;42.31;102064.81;7377999;19;20094;-74
2022/05/04 12:05:25;;;;;;;12.38;7.18;;;;;;;19.87;41.85;102065.69;7376301;19;20178;-74
2022/05/04 12:07:55;;;;;;;14.98;6.68;;;;;;;18.93;42.34;102063.38;7376309;19;20021;-74
2022/05/04 12:10:25;;;;;;;17.45;6.68;;;;;;;19.28;42.47;102058.84;7376795;19;20011;-74
2022/05/04 12:12:59;;;;;;;16.75;7.45;;;;;;;18.22;42.89;102072.25;7374031;19;20041;-74
2022/05/04 12:15:30;;;;;;;12.77;6.43;;;;;;;18.58;42.70;102055.44;7378091;19;20386;-74
2022/05/04 12:18:01;;;;;;;14.07;7.10;;;;;;;18.20;43.59;102060.72;7376166;19;20074;-74
2022/05/04 12:20:34;;;;;;;14.10;6.22;;;;;;;17.90;43.55;102065.09;7376348;19;20007;-75
2022/05/04 12:23:05;;;;;;;14.98;7.13;;;;;;;17.81;44.79;102070.38;7374755;19;20014;-78